createdAt,value
2019-02-24T00:02:27.444Z,51.87
2019-02-24T00:05:31.727Z,50.03
2019-02-24T00:08:36.029Z,47.87
2019-02-24T00:11:40.310Z,48.60
2019-02-24T00:14:44.627Z,49.47
2019-02-24T00:17:48.944Z,48.93
2019-02-24T00:20:53.247Z,50.27
2019-02-24T00:23:57.516Z,49.00
2019-02-24T00:27:01.878Z,50.53
2019-02-24T00:30:06.459Z,50.43
2019-02-24T00:33:10.747Z,49.37
2019-02-24T00:36:15.020Z,49.10
2019-02-24T00:39:19.400Z,50.47
2019-02-24T00:42:23.685Z,50.80
2019-02-24T00:45:28.061Z,50.47
2019-02-24T00:48:39.949Z,51.90
2019-02-24T00:51:44.263Z,52.93
2019-02-24T00:54:48.634Z,54.83
2019-02-24T00:57:53.018Z,54.47
2019-02-24T01:00:57.356Z,55.00
2019-02-24T01:04:01.591Z,56.80
2019-02-24T01:07:05.940Z,53.27
2019-02-24T01:10:10.629Z,54.47
2019-02-24T01:13:14.894Z,53.63
2019-02-24T01:16:19.553Z,53.97
2019-02-24T01:19:23.832Z,52.17
2019-02-24T01:22:28.066Z,54.63
2019-02-24T01:25:32.422Z,51.93
2019-02-24T01:28:36.707Z,52.10
2019-02-24T01:31:40.999Z,50.33
2019-02-24T01:34:45.369Z,51.20
2019-02-24T01:37:49.640Z,50.20
2019-02-24T01:40:53.963Z,50.60
2019-02-24T01:43:58.249Z,50.67
2019-02-24T01:47:02.567Z,48.20
2019-02-24T01:50:08.807Z,48.97
2019-02-24T01:53:13.052Z,49.27
2019-02-24T01:56:17.789Z,50.30
2019-02-24T01:59:22.095Z,47.20
2019-02-24T02:02:26.436Z,47.50
2019-02-24T02:05:30.901Z,46.73
2019-02-24T02:08:35.161Z,48.73
2019-02-24T02:11:39.464Z,50.27
2019-02-24T02:14:43.802Z,50.77
2019-02-24T02:17:48.171Z,50.73
2019-02-24T02:20:52.447Z,51.77
2019-02-24T02:23:56.802Z,50.43
2019-02-24T02:27:01.182Z,48.97
2019-02-24T02:30:06.584Z,50.47
2019-02-24T02:33:10.783Z,50.30
2019-02-24T02:36:15.094Z,48.63
2019-02-24T02:39:19.356Z,49.37
2019-02-24T02:42:23.658Z,47.20
2019-02-24T02:45:28.012Z,48.63
2019-02-24T02:48:32.326Z,48.03
2019-02-24T02:51:36.661Z,47.33
2019-02-24T02:54:40.960Z,46.07
2019-02-24T02:57:45.165Z,46.53
2019-02-24T03:00:49.457Z,44.20
2019-02-24T03:03:53.708Z,44.37
2019-02-24T03:07:06.891Z,42.53
2019-02-24T03:10:11.219Z,41.77
2019-02-24T03:13:15.514Z,43.10
2019-02-24T03:16:24.656Z,39.80
2019-02-24T03:19:28.867Z,41.93
2019-02-24T03:22:33.152Z,40.40
2019-02-24T03:25:37.943Z,39.27
2019-02-24T03:28:42.168Z,38.90
2019-02-24T03:31:46.475Z,38.83
2019-02-24T03:34:50.731Z,37.90
2019-02-24T03:37:54.950Z,36.67
2019-02-24T03:40:59.286Z,36.73
2019-02-24T03:44:03.675Z,36.57
2019-02-24T03:47:07.924Z,34.47
2019-02-24T03:50:12.291Z,36.67
2019-02-24T03:53:16.553Z,34.17
2019-02-24T03:56:20.870Z,34.00
2019-02-24T03:59:25.097Z,34.53
2019-02-24T04:02:29.303Z,33.00
2019-02-24T04:05:33.561Z,32.00
2019-02-24T04:08:37.935Z,33.20
2019-02-24T04:11:42.219Z,31.87
2019-02-24T04:14:46.567Z,31.13
2019-02-24T04:17:50.895Z,30.90
2019-02-24T04:20:55.110Z,28.70
2019-02-24T04:23:59.450Z,29.73
2019-02-24T04:27:04.232Z,27.57
2019-02-24T04:30:08.779Z,27.17
2019-02-24T04:33:13.190Z,27.70
2019-02-24T04:36:17.534Z,27.17
2019-02-24T04:39:21.879Z,26.77
2019-02-24T04:42:26.212Z,25.63
2019-02-24T04:45:30.458Z,25.37
2019-02-24T04:48:34.798Z,23.43
2019-02-24T04:51:39.158Z,24.30
2019-02-24T04:54:43.341Z,23.50
2019-02-24T04:57:47.620Z,22.77
2019-02-24T05:00:52.010Z,23.60
2019-02-24T05:03:56.375Z,23.20
2019-02-24T05:07:00.701Z,22.03
2019-02-24T05:10:06.543Z,22.43
2019-02-24T05:13:10.889Z,20.90
2019-02-24T05:16:15.171Z,20.83
2019-02-24T05:19:19.348Z,20.37
2019-02-24T05:22:23.646Z,19.57
2019-02-24T05:25:27.940Z,20.93
2019-02-24T05:28:32.260Z,18.27
2019-02-24T05:31:36.651Z,20.30
2019-02-24T05:34:41.023Z,20.03
2019-02-24T05:37:45.343Z,21.20
2019-02-24T05:40:49.624Z,20.73
2019-02-24T05:43:53.834Z,21.23
2019-02-24T05:46:58.303Z,21.77
2019-02-24T05:50:02.648Z,24.30
2019-02-24T05:53:06.947Z,24.47
2019-02-24T05:56:11.297Z,27.07
2019-02-24T05:59:15.688Z,26.60
2019-02-24T06:02:20.103Z,27.23
2019-02-24T06:05:24.448Z,28.07
2019-02-24T06:08:28.718Z,31.57
2019-02-24T06:11:32.935Z,32.57
2019-02-24T06:14:37.221Z,34.93
2019-02-24T06:17:41.592Z,35.63
2019-02-24T06:20:45.864Z,37.80
2019-02-24T06:23:50.204Z,37.23
2019-02-24T06:26:54.400Z,35.40
2019-02-24T06:30:04.964Z,40.07
2019-02-24T06:33:05.200Z,38.43
2019-02-24T06:36:09.550Z,39.50
2019-02-24T06:39:13.854Z,40.53
2019-02-24T06:42:18.224Z,38.90
2019-02-24T06:45:22.624Z,41.83
2019-02-24T06:48:26.931Z,41.90
2019-02-24T06:51:31.268Z,40.00
2019-02-24T06:54:35.619Z,42.17
2019-02-24T06:57:39.867Z,42.00
2019-02-24T07:00:44.176Z,42.90
2019-02-24T07:03:48.503Z,41.30
2019-02-24T07:06:52.893Z,40.70
2019-02-24T07:09:57.239Z,44.10
2019-02-24T07:13:01.606Z,41.33
2019-02-24T07:16:05.857Z,42.83
2019-02-24T07:19:10.234Z,42.10
2019-02-24T07:22:14.567Z,40.73
2019-02-24T07:25:18.872Z,44.63
2019-02-24T07:28:23.271Z,42.13
2019-02-24T07:31:28.034Z,41.90
2019-02-24T07:34:32.429Z,42.93
2019-02-24T07:37:36.829Z,41.23
2019-02-24T07:40:41.186Z,42.20
2019-02-24T07:43:45.535Z,43.57
2019-02-24T07:46:51.524Z,45.57
2019-02-24T07:49:55.901Z,43.33
2019-02-24T07:53:00.296Z,48.40
2019-02-24T07:56:04.596Z,45.53
2019-02-24T07:59:09.043Z,50.47
2019-02-24T08:02:13.612Z,46.60
2019-02-24T08:05:17.885Z,49.60
2019-02-24T08:08:22.268Z,51.60
2019-02-24T08:11:26.619Z,51.23
2019-02-24T08:14:30.953Z,50.03
2019-02-24T08:17:35.279Z,50.43
2019-02-24T08:20:39.801Z,55.60
2019-02-24T08:23:44.153Z,50.83
2019-02-24T08:26:48.514Z,51.60
2019-02-24T08:29:52.865Z,53.53
2019-02-24T08:32:57.512Z,53.90
2019-02-24T08:36:01.853Z,54.70
2019-02-24T08:39:08.363Z,52.50
2019-02-24T08:42:12.679Z,53.73
2019-02-24T08:45:17.494Z,55.27
2019-02-24T08:48:21.868Z,52.97
2019-02-24T08:51:26.174Z,52.03
2019-02-24T08:54:30.491Z,52.13
2019-02-24T08:57:34.873Z,49.00
2019-02-24T09:00:39.235Z,51.27
2019-02-24T09:03:43.640Z,48.77
2019-02-24T09:06:48.147Z,50.30
2019-02-24T09:09:52.447Z,49.83
2019-02-24T09:12:56.792Z,48.73
2019-02-24T09:16:01.179Z,50.47
2019-02-24T09:19:05.684Z,48.23
2019-02-24T09:22:12.402Z,47.70
2019-02-24T09:25:16.662Z,48.63
2019-02-24T09:28:21.139Z,48.50
2019-02-24T09:31:25.495Z,46.33
2019-02-24T09:34:29.962Z,46.70
2019-02-24T09:37:34.483Z,49.17
2019-02-24T09:40:38.912Z,44.80
2019-02-24T09:43:43.294Z,46.70
2019-02-24T09:46:47.715Z,44.73
2019-02-24T09:49:52.224Z,41.93
2019-02-24T09:52:56.626Z,41.53
2019-02-24T09:56:00.922Z,40.03
2019-02-24T09:59:05.291Z,38.57
2019-02-24T10:02:09.594Z,35.67
2019-02-24T10:05:14.407Z,34.40
2019-02-24T10:08:18.830Z,33.17
2019-02-24T10:11:23.132Z,34.00
2019-02-24T10:14:27.472Z,33.20
2019-02-24T10:17:31.883Z,33.17
2019-02-24T10:20:36.158Z,33.97
2019-02-24T10:23:40.600Z,33.07
2019-02-24T10:26:45.001Z,34.03
2019-02-24T10:29:49.396Z,33.73
2019-02-24T10:32:53.684Z,32.80
2019-02-24T10:35:58.474Z,34.63
2019-02-24T10:39:04.999Z,32.43
2019-02-24T10:42:09.393Z,32.57
2019-02-24T10:45:14.123Z,32.23
2019-02-24T10:48:18.729Z,32.77
2019-02-24T10:51:23.000Z,32.70
2019-02-24T10:54:27.546Z,31.20
2019-02-24T10:57:31.921Z,32.67
2019-02-24T11:00:36.310Z,32.53
2019-02-24T11:03:40.691Z,30.40
2019-02-24T11:06:45.085Z,31.50
2019-02-24T11:09:49.539Z,30.27
2019-02-24T11:12:54.310Z,31.43
2019-02-24T11:15:58.661Z,30.33
2019-02-24T11:19:03.084Z,28.53
2019-02-24T11:22:07.464Z,30.47
2019-02-24T11:25:11.939Z,29.03
2019-02-24T11:28:16.324Z,29.87
2019-02-24T11:31:20.660Z,27.83
2019-02-24T11:34:26.195Z,28.73
2019-02-24T11:37:32.384Z,29.13
2019-02-24T11:40:36.999Z,29.10
2019-02-24T11:43:41.378Z,27.90
2019-02-24T11:46:45.719Z,27.07
2019-02-24T11:49:49.950Z,28.67
2019-02-24T11:52:54.228Z,27.53
2019-02-24T11:55:58.540Z,26.70
2019-02-24T11:59:02.909Z,26.67
2019-02-24T12:02:10.268Z,28.43
2019-02-24T12:05:14.759Z,27.97
2019-02-24T12:08:19.082Z,26.20
2019-02-24T12:11:23.751Z,28.50
2019-02-24T12:14:28.120Z,28.10
2019-02-24T12:17:32.414Z,29.77
2019-02-24T12:20:36.734Z,28.67
2019-02-24T12:23:41.180Z,29.90
2019-02-24T12:26:45.482Z,29.37
2019-02-24T12:29:49.683Z,29.37
2019-02-24T12:32:54.181Z,28.97
2019-02-24T12:35:58.433Z,30.20
2019-02-24T12:39:02.790Z,29.27
2019-02-24T12:42:09.346Z,30.17
2019-02-24T12:45:13.760Z,30.03
2019-02-24T12:48:18.152Z,30.57
2019-02-24T12:51:22.586Z,27.37
2019-02-24T12:54:27.029Z,28.30
2019-02-24T12:57:31.401Z,30.40
2019-02-24T13:00:35.745Z,29.50
2019-02-24T13:03:40.133Z,30.40
2019-02-24T13:06:44.500Z,31.37
2019-02-24T13:09:48.959Z,28.60
2019-02-24T13:12:53.347Z,30.00
2019-02-24T13:15:57.675Z,28.37
2019-02-24T13:19:02.053Z,29.50
2019-02-24T13:22:06.665Z,28.97
2019-02-24T13:25:11.316Z,29.83
2019-02-24T13:28:16.015Z,32.10
2019-02-24T13:31:20.308Z,30.63
2019-02-24T13:34:24.685Z,34.27
2019-02-24T13:37:30.777Z,31.60
2019-02-24T13:40:35.627Z,32.97
2019-02-24T13:43:39.917Z,32.50
2019-02-24T13:46:44.290Z,32.53
2019-02-24T13:49:49.764Z,32.53
2019-02-24T13:52:54.151Z,32.77
2019-02-24T13:55:58.488Z,35.97
2019-02-24T13:59:02.844Z,33.20
2019-02-24T14:02:07.227Z,33.97
2019-02-24T14:05:11.668Z,33.30
2019-02-24T14:08:16.087Z,35.03
2019-02-24T14:11:20.451Z,36.63
2019-02-24T14:14:24.899Z,34.50
2019-02-24T14:17:30.431Z,35.63
2019-02-24T14:20:35.274Z,37.27
2019-02-24T14:23:39.561Z,35.23
2019-02-24T14:26:43.934Z,35.67
2019-02-24T14:29:48.629Z,35.10
2019-02-24T14:32:53.096Z,35.27
2019-02-24T14:35:57.617Z,35.03
2019-02-24T14:39:02.106Z,36.93
2019-02-24T14:42:06.489Z,36.80
2019-02-24T14:45:14.105Z,37.90
2019-02-24T14:48:18.493Z,34.03
2019-02-24T14:51:22.936Z,36.53
2019-02-24T14:54:28.391Z,35.93
2019-02-24T14:57:32.868Z,36.37
2019-02-24T15:00:37.292Z,37.87
2019-02-24T15:03:41.701Z,39.43
2019-02-24T15:06:46.108Z,37.40
2019-02-24T15:09:53.484Z,37.73
2019-02-24T15:12:58.214Z,38.13
2019-02-24T15:16:03.943Z,37.93
2019-02-24T15:19:08.446Z,35.93
2019-02-24T15:22:12.993Z,37.00
2019-02-24T15:25:17.765Z,36.33
2019-02-24T15:28:22.292Z,36.43
2019-02-24T15:31:28.420Z,37.53
2019-02-24T15:34:32.818Z,36.10
2019-02-24T15:37:37.301Z,35.80
2019-02-24T15:40:43.037Z,37.13
2019-02-24T15:43:47.400Z,37.23
2019-02-24T15:46:51.770Z,34.47
2019-02-24T15:49:56.184Z,36.23
2019-02-24T15:53:00.553Z,35.70
2019-02-24T15:56:05.406Z,34.57
2019-02-24T15:59:09.824Z,37.53
2019-02-24T16:02:14.252Z,35.67
2019-02-24T16:05:18.752Z,38.33
2019-02-24T16:08:23.198Z,37.00
2019-02-24T16:11:27.767Z,35.13
2019-02-24T16:14:33.400Z,35.17
2019-02-24T16:17:38.100Z,35.43
2019-02-24T16:20:42.436Z,35.33
2019-02-24T16:23:46.909Z,36.87
2019-02-24T16:26:51.338Z,37.33
2019-02-24T16:29:55.885Z,37.23
2019-02-24T16:33:00.315Z,39.90
2019-02-24T16:36:04.683Z,41.30
2019-02-24T16:39:09.023Z,43.20
2019-02-24T16:42:13.425Z,41.43
2019-02-24T16:45:18.049Z,39.53
2019-02-24T16:48:22.468Z,39.77
2019-02-24T16:51:27.282Z,39.33
2019-02-24T16:54:31.656Z,40.07
2019-02-24T16:57:36.202Z,38.80
2019-02-24T17:00:40.871Z,38.70
2019-02-24T17:03:45.423Z,41.03
2019-02-24T17:06:49.818Z,41.37
2019-02-24T17:09:54.526Z,41.07
2019-02-24T17:12:59.076Z,41.43
2019-02-24T17:16:03.712Z,41.27
2019-02-24T17:19:10.903Z,42.23
2019-02-24T17:22:15.382Z,41.40
2019-02-24T17:25:19.765Z,58.10
2019-02-24T17:28:24.245Z,71.20
2019-02-24T17:31:28.762Z,78.87
2019-02-24T17:34:33.305Z,78.47
2019-02-24T17:37:37.956Z,77.93
2019-02-24T17:40:42.645Z,78.43
2019-02-24T17:43:47.003Z,83.43
2019-02-24T17:46:51.370Z,87.13
2019-02-24T17:49:55.668Z,87.27
2019-02-24T17:53:00.322Z,86.23
2019-02-24T17:56:04.772Z,84.50
2019-02-24T17:59:09.208Z,84.73
2019-02-24T18:02:13.665Z,85.37
2019-02-24T18:05:18.163Z,85.47
2019-02-24T18:08:28.241Z,85.23
2019-02-24T18:11:28.570Z,86.33
2019-02-24T18:14:32.985Z,86.43
2019-02-24T18:17:37.319Z,85.60
2019-02-24T18:20:42.487Z,88.20
2019-02-24T18:23:46.993Z,81.23
2019-02-24T18:26:51.335Z,81.93
2019-02-24T18:29:55.712Z,81.27
2019-02-24T18:33:00.175Z,78.50
2019-02-24T18:36:04.619Z,80.30
2019-02-24T18:39:08.986Z,80.57
2019-02-24T18:42:14.503Z,77.37
2019-02-24T18:45:18.879Z,74.73
2019-02-24T18:48:23.316Z,79.97
2019-02-24T18:51:27.826Z,75.80
2019-02-24T18:54:34.683Z,75.63
2019-02-24T18:57:38.511Z,79.97
2019-02-24T19:00:42.815Z,76.70
2019-02-24T19:03:47.199Z,77.60
2019-02-24T19:06:51.577Z,77.27
2019-02-24T19:09:55.933Z,80.33
2019-02-24T19:13:00.337Z,80.37
2019-02-24T19:16:04.688Z,78.50
2019-02-24T19:19:09.090Z,76.47
2019-02-24T19:22:13.476Z,76.80
2019-02-24T19:25:17.990Z,75.93
2019-02-24T19:28:22.365Z,80.40
2019-02-24T19:31:26.749Z,74.03
2019-02-24T19:34:31.162Z,77.37
2019-02-24T19:37:35.563Z,76.20
2019-02-24T19:40:39.942Z,76.30
2019-02-24T19:43:44.351Z,76.80
2019-02-24T19:46:48.710Z,77.43
2019-02-24T19:49:53.089Z,72.07
2019-02-24T19:52:57.408Z,70.93
2019-02-24T19:56:01.901Z,67.67
2019-02-24T19:59:08.060Z,67.83
2019-02-24T20:02:12.445Z,70.20
2019-02-24T20:05:16.861Z,69.90
2019-02-24T20:08:22.269Z,67.47
2019-02-24T20:11:26.625Z,68.57
2019-02-24T20:14:31.031Z,68.13
2019-02-24T20:17:35.420Z,69.90
2019-02-24T20:20:40.924Z,74.27
2019-02-24T20:23:45.289Z,78.73
2019-02-24T20:26:49.842Z,80.90
2019-02-24T20:29:56.446Z,78.40
2019-02-24T20:33:00.840Z,74.07
2019-02-24T20:36:05.306Z,71.97
2019-02-24T20:39:09.757Z,73.17
2019-02-24T20:42:14.128Z,75.27
2019-02-24T20:45:19.396Z,91.17
2019-02-24T20:48:23.798Z,109.07
2019-02-24T20:51:28.372Z,100.97
2019-02-24T20:54:32.749Z,99.73
2019-02-24T20:57:37.893Z,131.33
2019-02-24T21:00:43.838Z,129.63
2019-02-24T21:03:48.372Z,130.70
2019-02-24T21:06:52.782Z,115.13
2019-02-24T21:09:57.094Z,108.33
2019-02-24T21:13:01.776Z,99.63
2019-02-24T21:16:06.188Z,93.37
2019-02-24T21:19:10.551Z,92.20
2019-02-24T21:22:14.946Z,88.03
2019-02-24T21:25:19.240Z,91.90
2019-02-24T21:28:23.620Z,76.07
2019-02-24T21:31:28.172Z,72.40
2019-02-24T21:34:32.561Z,65.83
2019-02-24T21:37:36.815Z,64.73
2019-02-24T21:40:41.195Z,60.10
2019-02-24T21:43:45.464Z,60.53
2019-02-24T21:46:49.778Z,62.53
2019-02-24T21:49:54.230Z,60.93
2019-02-24T21:52:58.548Z,71.20
2019-02-24T21:56:02.905Z,139.10
2019-02-24T21:59:08.178Z,106.97
2019-02-24T22:02:12.531Z,75.40
2019-02-24T22:05:16.836Z,75.50
2019-02-24T22:08:21.168Z,93.47
2019-02-24T22:11:25.471Z,84.43
2019-02-24T22:14:29.738Z,77.50
2019-02-24T22:17:34.319Z,69.30
2019-02-24T22:20:38.651Z,68.20
2019-02-24T22:23:42.989Z,64.57
2019-02-24T22:26:47.274Z,65.53
2019-02-24T22:29:52.036Z,65.87
2019-02-24T22:32:56.259Z,65.20
2019-02-24T22:36:00.643Z,63.37
2019-02-24T22:39:06.864Z,62.53
2019-02-24T22:42:11.117Z,64.17
2019-02-24T22:45:17.317Z,89.53
2019-02-24T22:48:21.693Z,77.13
2019-02-24T22:51:25.897Z,84.50
2019-02-24T22:54:30.323Z,88.00
2019-02-24T22:57:34.674Z,95.43
2019-02-24T23:01:10.733Z,106.90
2019-02-24T23:04:15.062Z,92.03
2019-02-24T23:07:19.370Z,69.20
2019-02-24T23:10:23.788Z,125.90
2019-02-24T23:13:28.039Z,69.77
2019-02-24T23:16:32.418Z,89.63
2019-02-24T23:19:36.790Z,67.37
2019-02-24T23:22:41.055Z,71.30
2019-02-24T23:25:45.314Z,69.53
2019-02-24T23:28:49.516Z,73.07
2019-02-24T23:31:53.802Z,79.40
2019-02-24T23:34:58.151Z,87.73
2019-02-24T23:38:02.524Z,95.00
2019-02-24T23:41:06.783Z,64.23
2019-02-24T23:44:11.095Z,60.97
2019-02-24T23:47:15.434Z,60.33
2019-02-24T23:50:19.799Z,56.67
2019-02-24T23:53:24.127Z,91.17
2019-02-24T23:56:28.433Z,80.73
2019-02-24T23:59:32.710Z,67.03
